Time;durP1;ratioP1;P1;durP2;ratioP2;P2;SDS_P1;SDS_P2;PMS_P1;PMS_P2;Temp;Humidity;BMP_temperature;BMP_pressure;BME280_temperature;BME280_humidity;BME280_pressure;Samples;Min_cycle;Max_cycle;Signal;HPM_P1;HPM_P2
2021/08/04 00:01:34;;;;;;;11.70;7.60;;;;;;;16.21;71.50;101285.66;5031712;28;20042;-59
2021/08/04 00:04:01;;;;;;;14.95;7.88;;;;;;;16.23;71.05;101288.09;5046856;28;20038;-58
2021/08/04 00:06:35;;;;;;;13.00;7.25;;;;;;;16.22;71.09;101289.22;5036400;28;20056;-57
2021/08/04 00:09:03;;;;;;;11.90;7.20;;;;;;;16.23;71.12;101285.34;5035880;28;20067;-59
2021/08/04 00:11:31;;;;;;;11.25;7.07;;;;;;;16.23;70.56;101290.84;5036349;28;20073;-57
2021/08/04 00:13:58;;;;;;;14.15;6.97;;;;;;;16.18;70.99;101289.78;5035900;28;20045;-56
2021/08/04 00:16:26;;;;;;;12.48;7.40;;;;;;;16.14;70.87;101286.00;5036010;28;20045;-56
2021/08/04 00:18:53;;;;;;;15.15;7.68;;;;;;;16.13;71.25;101281.63;5035836;28;20133;-60
2021/08/04 00:21:21;;;;;;;11.98;7.10;;;;;;;16.15;70.60;101287.63;5035948;28;20041;-56
2021/08/04 00:23:48;;;;;;;10.95;7.15;;;;;;;16.12;70.95;101290.16;5035936;28;20041;-57
2021/08/04 00:26:16;;;;;;;10.90;7.00;;;;;;;16.09;70.80;101282.50;5036079;28;20049;-57
2021/08/04 00:28:44;;;;;;;12.77;7.22;;;;;;;16.04;70.34;101288.88;5035674;28;20132;-59
2021/08/04 00:31:11;;;;;;;10.50;7.25;;;;;;;15.95;70.23;101282.41;5035395;28;20044;-58
2021/08/04 00:33:39;;;;;;;11.90;7.15;;;;;;;15.82;71.23;101277.59;5035548;28;20550;-57
2021/08/04 00:36:07;;;;;;;12.25;7.45;;;;;;;15.72;71.19;101278.53;5018069;28;20049;-55
2021/08/04 00:38:35;;;;;;;12.15;7.50;;;;;;;15.64;71.96;101273.66;5034425;28;20038;-56
2021/08/04 00:41:03;;;;;;;11.20;6.68;;;;;;;15.58;72.35;101270.13;5035728;28;20496;-56
2021/08/04 00:43:30;;;;;;;12.35;7.18;;;;;;;15.54;71.92;101269.09;5034187;28;20424;-57
2021/08/04 00:45:59;;;;;;;12.57;7.88;;;;;;;15.50;72.63;101265.28;5017725;28;20045;-62
2021/08/04 00:48:28;;;;;;;10.50;7.30;;;;;;;15.48;72.47;101267.50;5038296;28;20049;-57
2021/08/04 00:50:56;;;;;;;14.68;8.27;;;;;;;15.48;72.56;101264.75;5044698;28;20103;-58
2021/08/04 00:53:28;;;;;;;10.95;7.68;;;;;;;15.48;72.02;101268.31;5035309;28;20059;-57
2021/08/04 00:56:11;;;;;;;11.15;6.78;;;;;;;15.45;72.26;101268.06;5031653;28;20052;-53
2021/08/04 00:58:42;;;;;;;11.30;7.53;;;;;;;15.45;71.90;101266.16;5035083;28;20044;-54
2021/08/04 01:01:21;;;;;;;10.75;6.75;;;;;;;15.51;72.10;101262.25;5033723;28;20095;-58
2021/08/04 01:04:11;;;;;;;13.10;7.13;;;;;;;15.56;71.37;101261.34;5033846;28;20041;-59
2021/08/04 01:07:01;;;;;;;10.23;6.65;;;;;;;15.52;71.20;101260.31;5034018;28;20045;-60
2021/08/04 01:09:36;;;;;;;11.93;7.05;;;;;;;15.45;71.50;101265.31;5026890;28;20522;-60
2021/08/04 01:12:20;;;;;;;14.00;7.05;;;;;;;15.38;72.16;101267.59;5035457;28;20047;-60
2021/08/04 01:14:51;;;;;;;10.95;7.03;;;;;;;15.35;71.82;101271.75;5028261;28;20040;-60
2021/08/04 01:17:19;;;;;;;11.52;7.03;;;;;;;15.38;71.96;101273.09;5018314;28;20121;-63
2021/08/04 01:20:04;;;;;;;10.85;6.95;;;;;;;15.42;72.00;101276.91;5033805;28;20050;-61
2021/08/04 01:22:47;;;;;;;11.13;6.93;;;;;;;15.44;71.71;101269.16;5033128;28;20087;-60
2021/08/04 01:25:18;;;;;;;9.73;6.57;;;;;;;15.43;71.68;101268.34;5033282;28;20048;-56
2021/08/04 01:27:49;;;;;;;11.63;6.55;;;;;;;15.41;71.79;101269.75;5032423;28;20046;-60
2021/08/04 01:30:17;;;;;;;9.63;6.40;;;;;;;15.42;71.95;101276.91;5034620;28;20076;-59
2021/08/04 01:32:45;;;;;;;11.32;6.18;;;;;;;15.42;71.83;101266.72;5028120;28;20052;-60
2021/08/04 01:35:13;;;;;;;9.00;5.75;;;;;;;15.44;71.69;101264.53;5020411;28;20049;-61
2021/08/04 01:37:42;;;;;;;11.02;6.80;;;;;;;15.49;71.79;101277.34;5046650;28;20049;-60
2021/08/04 01:40:11;;;;;;;8.85;6.07;;;;;;;15.51;71.49;101269.66;5033108;28;20124;-60
2021/08/04 01:42:39;;;;;;;10.82;6.32;;;;;;;15.52;71.51;101272.13;5025202;28;20403;-60
2021/08/04 01:45:08;;;;;;;11.75;7.10;;;;;;;15.53;71.38;101267.44;5032015;28;20038;-58
2021/08/04 01:47:36;;;;;;;11.13;6.70;;;;;;;15.53;71.32;101272.91;5042061;28;20148;-60
2021/08/04 01:50:05;;;;;;;15.50;6.60;;;;;;;15.51;71.59;101275.97;5032818;28;20132;-59
2021/08/04 01:52:42;;;;;;;11.77;6.75;;;;;;;15.48;71.48;101272.97;5033153;28;20467;-63
2021/08/04 01:55:11;;;;;;;11.98;6.40;;;;;;;15.42;71.72;101263.97;5046834;28;20049;-61
2021/08/04 01:57:39;;;;;;;11.77;6.72;;;;;;;15.41;71.94;101275.25;5032476;28;20500;-59
2021/08/04 02:00:07;;;;;;;8.95;6.32;;;;;;;15.40;72.17;101268.13;5032488;28;20046;-59
2021/08/04 02:02:40;;;;;;;12.52;6.60;;;;;;;15.42;71.70;101274.97;5033929;28;20049;-60
2021/08/04 02:05:09;;;;;;;10.30;6.53;;;;;;;15.43;71.40;101267.53;5032666;28;20103;-62
2021/08/04 02:07:43;;;;;;;9.23;5.97;;;;;;;15.41;71.05;101273.31;5033755;28;20128;-62
2021/08/04 02:10:14;;;;;;;10.57;6.03;;;;;;;15.41;70.81;101278.00;5033481;28;20083;-59
2021/08/04 02:12:49;;;;;;;11.52;6.55;;;;;;;15.41;70.60;101273.31;5020475;28;20050;-62
2021/08/04 02:15:19;;;;;;;11.73;6.40;;;;;;;15.38;70.77;101275.84;5046509;28;20116;-60
2021/08/04 02:17:54;;;;;;;10.90;6.53;;;;;;;15.30;70.58;101269.84;5033794;28;20049;-61
2021/08/04 02:20:48;;;;;;;10.90;6.22;;;;;;;15.27;70.55;101273.19;5033371;28;20468;-59
2021/08/04 02:23:23;;;;;;;10.00;6.47;;;;;;;15.24;70.38;101259.22;5030749;28;20050;-59
2021/08/04 02:26:15;;;;;;;8.77;5.82;;;;;;;15.18;70.76;101263.94;5035677;28;20076;-62
2021/08/04 02:28:46;;;;;;;11.40;6.72;;;;;;;15.15;70.98;101259.00;5011334;28;20771;-59
2021/08/04 02:31:15;;;;;;;9.13;6.13;;;;;;;15.16;70.82;101262.59;4994679;28;20097;-61
2021/08/04 02:33:46;;;;;;;8.25;5.82;;;;;;;15.16;71.01;101251.59;5025568;28;20057;-60
2021/08/04 02:36:14;;;;;;;9.80;6.18;;;;;;;15.19;71.24;101251.03;4995096;28;20763;-60
2021/08/04 02:38:44;;;;;;;10.35;6.45;;;;;;;15.20;70.67;101255.38;5030103;28;20070;-63
2021/08/04 02:41:13;;;;;;;8.57;5.88;;;;;;;15.20;70.70;101263.63;5030356;28;20049;-59
2021/08/04 02:43:41;;;;;;;9.90;5.85;;;;;;;15.19;70.61;101262.00;5014741;28;20365;-60
2021/08/04 02:46:09;;;;;;;13.73;6.60;;;;;;;15.15;70.82;101250.75;5014085;28;20521;-63
2021/08/04 02:48:38;;;;;;;10.25;6.38;;;;;;;15.13;70.12;101253.00;5014409;28;20546;-60
2021/08/04 02:51:10;;;;;;;9.57;6.47;;;;;;;15.09;70.94;101263.72;5010844;28;20211;-61
2021/08/04 02:53:38;;;;;;;11.20;6.63;;;;;;;15.09;70.96;101262.91;5017304;28;20449;-61
2021/08/04 02:56:06;;;;;;;10.32;6.38;;;;;;;15.10;70.91;101256.31;5013895;28;20053;-60
2021/08/04 02:58:37;;;;;;;9.82;5.68;;;;;;;15.10;70.98;101253.56;5014061;28;20045;-59
2021/08/04 03:01:06;;;;;;;9.30;6.22;;;;;;;15.09;70.89;101251.94;5030289;28;20053;-60
2021/08/04 03:03:34;;;;;;;10.05;5.95;;;;;;;15.09;70.81;101257.41;5030201;28;20051;-60
2021/08/04 03:06:02;;;;;;;9.32;5.90;;;;;;;15.11;71.29;101257.97;5033261;28;20042;-58
2021/08/04 03:08:30;;;;;;;10.23;6.20;;;;;;;15.09;71.15;101258.22;5032314;28;20041;-58
2021/08/04 03:10:57;;;;;;;10.27;5.93;;;;;;;15.04;71.22;101249.25;5032440;28;20050;-60
2021/08/04 03:13:27;;;;;;;8.93;5.78;;;;;;;15.01;70.92;101252.53;5045241;28;20057;-61
2021/08/04 03:15:56;;;;;;;9.65;6.30;;;;;;;14.93;71.10;101247.69;5032396;28;20111;-61
2021/08/04 03:18:23;;;;;;;10.35;5.90;;;;;;;14.86;71.40;101245.25;5045297;28;20046;-60
2021/08/04 03:20:51;;;;;;;10.35;6.35;;;;;;;14.83;71.41;101245.84;5045259;28;20440;-60
2021/08/04 03:23:19;;;;;;;13.07;6.35;;;;;;;14.85;71.60;101252.66;5032075;28;20051;-61
2021/08/04 03:25:47;;;;;;;9.02;6.13;;;;;;;14.89;71.60;101251.00;5031874;28;20459;-60
2021/08/04 03:28:15;;;;;;;9.15;6.05;;;;;;;14.95;71.00;101253.69;5032638;28;20049;-60
2021/08/04 03:30:42;;;;;;;9.45;5.93;;;;;;;14.97;70.68;101262.47;5031997;28;20109;-60
2021/08/04 03:33:10;;;;;;;10.07;6.25;;;;;;;14.97;70.91;101255.03;5032307;28;20045;-59
2021/08/04 03:35:38;;;;;;;15.32;6.38;;;;;;;14.94;70.75;101255.63;5032198;28;20103;-60
2021/08/04 03:38:05;;;;;;;9.77;6.20;;;;;;;14.86;71.11;101257.06;5031940;28;20037;-61
2021/08/04 03:40:33;;;;;;;10.55;6.10;;;;;;;14.75;71.54;101255.50;5032498;28;20041;-59
2021/08/04 03:43:00;;;;;;;8.40;5.97;;;;;;;14.73;71.74;101260.44;5032422;28;20388;-59
2021/08/04 03:45:28;;;;;;;9.23;5.30;;;;;;;14.76;71.88;101259.88;5032201;28;20049;-60
2021/08/04 03:47:56;;;;;;;9.80;5.90;;;;;;;14.78;72.00;101265.88;5032434;28;20038;-59
2021/08/04 03:50:23;;;;;;;10.05;6.10;;;;;;;14.77;71.48;101264.25;5032598;28;20129;-59
2021/08/04 03:52:51;;;;;;;9.85;6.18;;;;;;;14.74;71.58;101273.03;5032155;28;20048;-61
2021/08/04 03:55:18;;;;;;;9.30;6.20;;;;;;;14.69;71.43;101278.56;5032693;28;20042;-60
2021/08/04 03:57:46;;;;;;;9.65;6.10;;;;;;;14.64;72.09;101268.44;5030826;28;20397;-60
2021/08/04 04:00:14;;;;;;;10.05;6.32;;;;;;;14.66;72.46;101270.91;5030689;28;20095;-61
2021/08/04 04:02:41;;;;;;;10.43;6.28;;;;;;;14.68;72.17;101269.53;5032177;28;20045;-59
2021/08/04 04:05:10;;;;;;;9.63;6.30;;;;;;;14.69;72.14;101265.66;5032001;28;20044;-61
2021/08/04 04:07:38;;;;;;;8.88;6.32;;;;;;;14.70;72.02;101272.81;5031806;28;20044;-60
2021/08/04 04:10:07;;;;;;;10.50;6.65;;;;;;;14.68;72.28;101268.72;5031973;28;20042;-61
2021/08/04 04:12:36;;;;;;;11.93;6.15;;;;;;;14.66;72.49;101279.94;5031636;28;20056;-60
2021/08/04 04:15:04;;;;;;;8.23;5.82;;;;;;;14.68;72.52;101276.94;5031956;28;20461;-61
2021/08/04 04:17:32;;;;;;;9.20;6.95;;;;;;;14.68;71.92;101275.00;5032039;28;20041;-61
2021/08/04 04:20:00;;;;;;;10.30;6.00;;;;;;;14.67;72.25;101278.03;5031877;28;20045;-61
2021/08/04 04:22:27;;;;;;;10.15;6.40;;;;;;;14.69;72.29;101275.81;5031309;28;20038;-60
2021/08/04 04:24:55;;;;;;;9.70;5.95;;;;;;;14.71;71.66;101276.38;5031842;28;20052;-60
2021/08/04 04:27:24;;;;;;;9.48;5.80;;;;;;;14.71;71.91;101279.09;5031544;28;20087;-60
2021/08/04 04:29:51;;;;;;;8.23;5.90;;;;;;;14.75;71.56;101273.88;5031944;28;20041;-62
2021/08/04 04:32:19;;;;;;;8.43;4.63;;;;;;;14.80;71.49;101285.63;5037056;28;20052;-54
2021/08/04 04:34:46;;;;;;;8.32;5.05;;;;;;;14.85;71.50;101285.59;5039914;28;20057;-57
2021/08/04 04:37:14;;;;;;;8.35;4.47;;;;;;;14.90;71.71;101295.72;5045447;28;20041;-59
2021/08/04 04:39:41;;;;;;;10.55;5.32;;;;;;;14.91;70.93;101295.44;5032059;28;20530;-57
2021/08/04 04:42:09;;;;;;;9.05;5.05;;;;;;;14.91;70.53;101295.44;5033247;28;20041;-60
2021/08/04 04:44:37;;;;;;;8.05;5.25;;;;;;;14.90;70.42;101292.97;5031402;28;20037;-60
2021/08/04 04:47:07;;;;;;;9.38;5.45;;;;;;;14.85;70.12;101291.06;5031725;28;20053;-61
2021/08/04 04:49:35;;;;;;;9.63;5.78;;;;;;;14.82;70.40;101291.66;5031469;28;20056;-62
2021/08/04 04:52:02;;;;;;;11.00;6.25;;;;;;;14.79;70.34;101289.50;5033175;28;20404;-60
2021/08/04 04:54:30;;;;;;;10.05;5.82;;;;;;;14.80;70.23;101296.59;5034731;28;20057;-58
2021/08/04 04:56:57;;;;;;;9.45;5.88;;;;;;;14.81;70.52;101289.19;5033735;28;20504;-61
2021/08/04 04:59:25;;;;;;;8.90;5.70;;;;;;;14.81;70.68;101291.94;5035013;28;20045;-62
2021/08/04 05:01:52;;;;;;;9.20;5.05;;;;;;;14.84;70.16;101288.59;5034668;28;20052;-62
2021/08/04 05:04:20;;;;;;;7.97;4.93;;;;;;;14.85;70.44;101296.56;5034817;28;20091;-63
2021/08/04 05:06:48;;;;;;;8.80;4.82;;;;;;;14.85;70.49;101293.81;5034681;28;20042;-63
2021/08/04 05:09:15;;;;;;;7.60;5.03;;;;;;;14.87;70.27;101288.06;5034584;28;20516;-61
2021/08/04 05:11:43;;;;;;;10.48;5.30;;;;;;;14.86;70.23;101292.72;5034595;28;20038;-63
2021/08/04 05:14:10;;;;;;;8.05;4.70;;;;;;;14.84;70.43;101288.59;5034802;28;20064;-63
2021/08/04 05:16:38;;;;;;;7.63;4.68;;;;;;;14.87;70.60;101299.84;5034518;28;20518;-60
2021/08/04 05:19:06;;;;;;;7.60;4.78;;;;;;;14.88;70.52;101293.25;5034429;28;20037;-60
2021/08/04 05:21:33;;;;;;;8.18;5.25;;;;;;;14.88;70.67;101301.47;5034104;28;20055;-60
2021/08/04 05:24:01;;;;;;;7.95;5.05;;;;;;;14.88;70.95;101295.97;4339219;28;9999923;-61
2021/08/04 05:26:29;;;;;;;10.25;5.60;;;;;;;14.89;70.87;101297.63;5032284;28;20049;-61
2021/08/04 05:28:57;;;;;;;9.68;6.05;;;;;;;14.89;71.24;101303.13;5050747;28;20491;-63
2021/08/04 05:31:25;;;;;;;9.80;6.13;;;;;;;14.86;71.58;101303.72;5040113;28;20420;-59
2021/08/04 05:33:53;;;;;;;11.48;5.90;;;;;;;14.87;71.55;101305.34;5031726;28;20056;-62
2021/08/04 05:36:20;;;;;;;10.60;6.53;;;;;;;14.89;71.73;101307.81;5031406;28;20045;-63
2021/08/04 05:38:48;;;;;;;11.73;6.65;;;;;;;14.87;72.09;101310.81;5031783;28;20136;-62
2021/08/04 05:41:15;;;;;;;9.82;5.97;;;;;;;14.80;72.57;101310.31;5028478;28;20041;-62
2021/08/04 05:43:43;;;;;;;11.32;6.15;;;;;;;14.74;73.27;101310.63;5031304;28;20034;-62
2021/08/04 05:46:10;;;;;;;12.02;6.70;;;;;;;14.70;73.65;101304.91;5038816;28;20385;-58
2021/08/04 05:48:38;;;;;;;21.92;7.95;;;;;;;14.76;73.58;101308.44;5040991;28;20048;-62
2021/08/04 05:51:06;;;;;;;11.40;7.13;;;;;;;14.83;73.54;101308.94;5042420;28;20045;-63
2021/08/04 05:53:33;;;;;;;12.02;7.20;;;;;;;14.89;73.55;101314.09;5040169;28;20053;-63
2021/08/04 05:56:01;;;;;;;13.75;8.18;;;;;;;14.95;73.52;101314.88;5042226;28;20037;-62
2021/08/04 05:58:28;;;;;;;17.80;7.22;;;;;;;15.01;73.20;101312.91;5044423;28;20049;-61
2021/08/04 06:00:56;;;;;;;19.50;8.65;;;;;;;15.07;73.85;101314.53;5036656;28;20032;-63
2021/08/04 06:03:23;;;;;;;35.50;11.52;;;;;;;15.05;74.19;101308.50;5038174;28;20120;-61
2021/08/04 06:05:51;;;;;;;30.27;10.73;;;;;;;15.01;74.75;101308.25;5043019;28;20041;-61
2021/08/04 06:08:19;;;;;;;23.20;9.15;;;;;;;15.01;75.00;101305.50;5040508;28;20056;-59
2021/08/04 06:10:46;;;;;;;23.92;10.80;;;;;;;15.06;74.95;101308.22;5032735;28;20049;-65
2021/08/04 06:13:14;;;;;;;16.95;8.02;;;;;;;15.13;75.12;101316.13;5039764;28;20048;-59
2021/08/04 06:15:49;;;;;;;16.23;7.88;;;;;;;15.16;75.23;101310.06;5037205;28;20484;-55
2021/08/04 06:18:17;;;;;;;14.25;7.00;;;;;;;15.16;75.78;101307.31;5039499;28;20045;-55
2021/08/04 06:20:45;;;;;;;79.25;9.60;;;;;;;15.18;76.27;101307.84;5038202;28;20064;-60
2021/08/04 06:23:12;;;;;;;23.15;8.77;;;;;;;15.20;76.25;101311.13;5042948;28;20045;-60
2021/08/04 06:25:40;;;;;;;20.48;9.10;;;;;;;15.22;76.87;101310.81;5038347;28;20034;-60
2021/08/04 06:28:07;;;;;;;16.90;8.68;;;;;;;15.25;76.58;101305.59;5042118;28;20102;-63
2021/08/04 06:30:35;;;;;;;27.00;8.88;;;;;;;15.33;76.62;101321.44;5032731;28;20037;-63
2021/08/04 06:33:03;;;;;;;12.05;6.60;;;;;;;15.39;76.23;101313.16;5032377;28;20042;-63
2021/08/04 06:35:50;;;;;;;11.65;7.53;;;;;;;15.47;75.83;101312.56;5033188;28;20125;-64
2021/08/04 06:38:18;;;;;;;12.80;8.32;;;;;;;15.51;75.85;101317.19;5033027;28;20107;-60
2021/08/04 06:40:45;;;;;;;12.35;6.82;;;;;;;15.55;75.85;101311.91;5032074;28;20543;-61
2021/08/04 06:43:13;;;;;;;10.57;7.03;;;;;;;15.62;75.19;101314.31;5032892;28;20029;-62
2021/08/04 06:45:41;;;;;;;9.23;5.70;;;;;;;15.66;75.26;101313.47;5032579;28;20049;-63
2021/08/04 06:48:10;;;;;;;12.63;5.40;;;;;;;15.69;74.88;101306.56;5032373;28;20095;-62
2021/08/04 06:50:38;;;;;;;12.48;5.72;;;;;;;15.72;75.03;101312.31;5032685;28;20049;-63
2021/08/04 06:53:05;;;;;;;13.38;6.40;;;;;;;15.75;74.63;101319.16;5032579;28;20045;-63
2021/08/04 06:55:33;;;;;;;11.20;7.60;;;;;;;15.74;74.88;101318.34;5032561;28;20049;-63
2021/08/04 06:58:00;;;;;;;13.38;7.05;;;;;;;15.77;74.58;101317.75;5044945;28;20121;-62
2021/08/04 07:00:28;;;;;;;13.00;8.05;;;;;;;15.79;74.97;101316.66;5040137;28;20041;-62
2021/08/04 07:02:56;;;;;;;16.23;8.73;;;;;;;15.81;75.27;101317.19;5036230;28;20703;-60
2021/08/04 07:05:23;;;;;;;19.58;8.68;;;;;;;15.80;75.11;101321.03;5032562;28;20496;-63
2021/08/04 07:07:51;;;;;;;21.05;8.55;;;;;;;15.80;75.09;101323.78;5032239;28;20515;-58
2021/08/04 07:10:18;;;;;;;15.15;7.15;;;;;;;15.81;75.05;101317.19;5031889;28;20060;-60
2021/08/04 07:12:48;;;;;;;13.00;5.82;;;;;;;15.86;74.65;101322.63;5032142;28;20053;-62
2021/08/04 07:15:15;;;;;;;16.25;6.22;;;;;;;15.93;74.05;101331.34;5031162;28;20052;-60
2021/08/04 07:17:48;;;;;;;9.82;5.35;;;;;;;15.94;73.88;101322.78;5032151;28;20049;-61
2021/08/04 07:20:21;;;;;;;19.58;11.23;;;;;;;15.97;74.20;101337.91;5031786;28;20112;-61
2021/08/04 07:22:50;;;;;;;17.60;8.60;;;;;;;15.99;73.85;101324.66;5032207;28;20041;-59
2021/08/04 07:25:18;;;;;;;19.73;8.00;;;;;;;16.00;73.20;101323.56;5032219;28;20061;-61
2021/08/04 07:27:45;;;;;;;17.45;7.50;;;;;;;16.02;73.30;101329.59;5032230;28;20037;-63
2021/08/04 07:30:13;;;;;;;12.48;6.82;;;;;;;16.03;72.95;101317.47;5030018;28;20138;-61
2021/08/04 07:32:41;;;;;;;13.90;6.95;;;;;;;16.07;73.22;101317.72;5033509;28;20037;-63
2021/08/04 07:35:10;;;;;;;11.73;5.82;;;;;;;16.10;72.94;101320.69;5040374;28;20144;-61
2021/08/04 07:37:38;;;;;;;13.98;7.15;;;;;;;16.15;73.71;101317.06;5040931;28;20050;-63
2021/08/04 07:40:10;;;;;;;18.45;10.23;;;;;;;16.22;73.95;101316.72;5045213;28;20041;-63
2021/08/04 07:42:37;;;;;;;13.82;6.25;;;;;;;16.26;73.52;101307.59;5031091;28;20408;-63
2021/08/04 07:45:06;;;;;;;19.27;9.35;;;;;;;16.29;72.93;101317.19;5033333;28;20045;-59
2021/08/04 07:47:33;;;;;;;20.10;8.40;;;;;;;16.35;72.68;101313.22;5034404;28;20033;-62
2021/08/04 07:50:02;;;;;;;20.15;9.10;;;;;;;16.40;73.49;101318.66;5033748;28;20091;-60
2021/08/04 07:52:30;;;;;;;13.43;7.20;;;;;;;16.47;72.20;101313.63;5035434;28;20045;-58
2021/08/04 07:54:57;;;;;;;16.20;7.43;;;;;;;16.55;72.47;101315.72;5033542;28;20037;-59
2021/08/04 07:57:25;;;;;;;17.70;8.00;;;;;;;16.59;73.04;101310.44;5033289;28;20076;-58
2021/08/04 07:59:53;;;;;;;19.58;8.15;;;;;;;16.64;72.60;101312.31;5034355;28;20722;-58
2021/08/04 08:02:20;;;;;;;14.55;8.18;;;;;;;16.63;70.55;101311.50;5033545;28;20049;-61
2021/08/04 08:04:48;;;;;;;15.10;8.10;;;;;;;16.62;71.05;101312.63;5035084;28;20372;-62
2021/08/04 08:07:16;;;;;;;12.18;6.82;;;;;;;16.63;70.93;101305.16;5033549;28;20411;-61
2021/08/04 08:09:43;;;;;;;25.50;9.48;;;;;;;16.65;71.51;101297.44;5034706;28;20128;-61
2021/08/04 08:12:11;;;;;;;12.77;8.20;;;;;;;16.68;72.36;101299.59;5037735;28;20037;-61
2021/08/04 08:14:39;;;;;;;12.55;6.50;;;;;;;16.70;70.78;101298.19;5038881;28;20043;-58
2021/08/04 08:17:06;;;;;;;13.48;6.30;;;;;;;16.72;67.06;101303.41;5033484;28;20045;-61
2021/08/04 08:19:34;;;;;;;13.20;7.20;;;;;;;16.79;68.77;101309.38;5033563;28;20045;-60
2021/08/04 08:22:02;;;;;;;12.32;6.57;;;;;;;16.83;68.69;101307.66;5034455;28;20493;-55
2021/08/04 08:24:29;;;;;;;12.48;6.53;;;;;;;16.87;69.67;101305.13;5033185;28;20041;-61
2021/08/04 08:26:57;;;;;;;11.50;6.80;;;;;;;16.90;70.08;101299.81;5038182;28;20049;-57
2021/08/04 08:29:25;;;;;;;10.15;6.15;;;;;;;16.90;69.22;101302.56;5037169;28;20037;-60
2021/08/04 08:31:52;;;;;;;8.85;5.68;;;;;;;16.91;67.86;101306.97;5038311;28;20041;-56
2021/08/04 08:34:20;;;;;;;22.13;8.05;;;;;;;16.97;68.29;101297.50;5036910;28;20050;-59
2021/08/04 08:36:47;;;;;;;12.52;6.97;;;;;;;16.99;68.05;101298.03;5038620;28;20038;-55
2021/08/04 08:39:15;;;;;;;20.08;8.35;;;;;;;17.00;67.42;101290.59;5036915;28;20497;-58
2021/08/04 08:41:45;;;;;;;10.20;6.15;;;;;;;17.03;66.56;101293.56;5035989;28;20033;-60
2021/08/04 08:44:13;;;;;;;9.00;5.30;;;;;;;17.09;65.96;101287.97;5034859;28;20069;-62
2021/08/04 08:46:40;;;;;;;11.52;5.05;;;;;;;17.10;65.96;101293.19;5035371;28;20037;-62
2021/08/04 08:49:09;;;;;;;8.63;5.18;;;;;;;17.20;65.52;101292.22;5034891;28;20040;-57
2021/08/04 08:51:36;;;;;;;9.68;5.30;;;;;;;17.23;64.99;101288.84;5048177;28;20506;-56
2021/08/04 08:54:04;;;;;;;10.25;5.55;;;;;;;17.27;64.76;101297.31;5052560;28;20437;-59
2021/08/04 08:56:31;;;;;;;12.60;5.05;;;;;;;17.36;63.80;101290.81;5050613;28;20041;-60
2021/08/04 08:58:59;;;;;;;10.60;5.30;;;;;;;17.42;61.63;101289.59;5052812;28;20029;-59
2021/08/04 09:01:36;;;;;;;14.63;5.70;;;;;;;17.46;62.53;101285.13;5050229;28;20459;-59
2021/08/04 09:04:07;;;;;;;18.92;8.65;;;;;;;17.61;62.63;101288.72;5052547;28;20415;-59
2021/08/04 09:06:46;;;;;;;11.43;5.70;;;;;;;17.64;63.21;101290.88;5039218;28;20041;-61
2021/08/04 09:09:18;;;;;;;11.75;5.70;;;;;;;17.64;61.88;101294.44;5052882;28;20132;-55
2021/08/04 09:11:48;;;;;;;13.00;4.85;;;;;;;17.64;61.66;101288.13;5049589;28;20076;-59
2021/08/04 09:14:15;;;;;;;12.43;5.10;;;;;;;17.67;61.33;101293.00;5054635;28;20120;-58
2021/08/04 09:16:44;;;;;;;15.30;6.20;;;;;;;17.73;62.90;101293.75;5053152;28;20033;-56
2021/08/04 09:19:22;;;;;;;11.45;5.40;;;;;;;17.76;63.73;101293.94;5054306;28;20049;-55
2021/08/04 09:22:09;;;;;;;10.32;5.00;;;;;;;17.84;63.29;101295.19;5054233;28;20116;-55
2021/08/04 09:24:55;;;;;;;12.43;4.90;;;;;;;17.82;65.32;101292.75;5054433;28;20119;-57
2021/08/04 09:27:43;;;;;;;9.48;4.45;;;;;;;17.76;61.92;101290.38;5054580;28;20064;-57
2021/08/04 09:30:17;;;;;;;15.27;5.35;;;;;;;17.83;63.91;101299.91;5042150;28;20048;-57
2021/08/04 09:32:45;;;;;;;10.43;4.18;;;;;;;17.91;63.93;101295.59;5048019;28;20546;-58
2021/08/04 09:35:16;;;;;;;9.93;4.78;;;;;;;17.90;60.95;101288.47;5049119;28;20108;-59
2021/08/04 09:37:46;;;;;;;18.63;6.97;;;;;;;17.83;61.05;101290.81;5042046;28;20053;-60
2021/08/04 09:40:21;;;;;;;11.68;5.20;;;;;;;17.80;62.05;101289.50;5036682;28;20522;-58
2021/08/04 09:42:53;;;;;;;8.20;4.40;;;;;;;17.84;61.16;101290.50;5033519;28;20037;-59
2021/08/04 09:45:43;;;;;;;8.52;4.40;;;;;;;17.88;60.44;101291.53;5033991;28;20073;-58
2021/08/04 09:48:14;;;;;;;7.65;4.03;;;;;;;17.96;60.22;101298.25;5034094;28;20042;-56
2021/08/04 09:50:44;;;;;;;7.45;4.63;;;;;;;18.03;60.74;101298.66;5034030;28;20041;-59
2021/08/04 09:53:23;;;;;;;9.35;3.42;;;;;;;18.14;63.76;101284.69;5033878;28;20057;-59
2021/08/04 09:56:20;;;;;;;9.27;4.40;;;;;;;18.20;62.77;101284.25;5033390;28;20045;-60
2021/08/04 09:58:52;;;;;;;7.22;4.30;;;;;;;18.22;60.02;101279.25;5037551;28;20051;-58
2021/08/04 10:01:22;;;;;;;9.50;5.75;;;;;;;18.28;59.53;101278.03;5036502;28;20041;-60
2021/08/04 10:03:59;;;;;;;13.18;5.30;;;;;;;18.39;58.71;101280.56;5046961;28;20037;-59
2021/08/04 10:06:36;;;;;;;13.15;6.43;;;;;;;18.46;58.63;101280.94;5045951;28;20037;-61
2021/08/04 10:09:06;;;;;;;12.48;5.50;;;;;;;18.50;58.42;101280.03;5048690;28;20120;-59
2021/08/04 10:11:34;;;;;;;15.48;6.35;;;;;;;18.56;59.22;101282.66;5046072;28;20041;-64
2021/08/04 10:14:01;;;;;;;23.80;7.88;;;;;;;18.57;57.76;101268.56;5046459;28;20888;-59
2021/08/04 10:16:32;;;;;;;13.73;6.53;;;;;;;18.59;58.34;101276.50;5047755;28;20040;-60
2021/08/04 10:19:02;;;;;;;6.22;3.40;;;;;;;18.66;61.02;101277.72;5043152;28;20033;-60
2021/08/04 10:21:33;;;;;;;12.20;6.88;;;;;;;18.62;57.68;101273.16;5042825;28;20041;-61
2021/08/04 10:24:03;;;;;;;12.70;5.70;;;;;;;18.60;58.33;101270.69;5045445;28;20088;-61
2021/08/04 10:26:30;;;;;;;12.00;5.57;;;;;;;18.57;58.72;101267.72;5048747;28;20043;-61
2021/08/04 10:28:58;;;;;;;10.48;5.57;;;;;;;18.58;58.26;101264.66;5044410;28;20810;-61
2021/08/04 10:31:28;;;;;;;11.73;6.50;;;;;;;18.65;58.00;101261.47;5047053;28;20049;-61
2021/08/04 10:33:58;;;;;;;21.90;7.00;;;;;;;18.71;57.88;101262.97;5043781;28;20129;-61
2021/08/04 10:36:34;;;;;;;11.75;5.07;;;;;;;18.83;56.18;101260.53;5048581;28;20076;-60
2021/08/04 10:39:20;;;;;;;15.85;5.20;;;;;;;18.91;56.44;101258.97;5034559;28;20079;-62
2021/08/04 10:42:08;;;;;;;20.00;6.28;;;;;;;18.95;55.89;101251.66;5032239;28;20059;-59
2021/08/04 10:44:36;;;;;;;9.20;4.22;;;;;;;18.96;57.22;101253.31;5033183;28;20038;-60
2021/08/04 10:47:05;;;;;;;9.57;4.97;;;;;;;18.89;53.71;101252.94;5033203;28;20046;-58
2021/08/04 10:49:35;;;;;;;13.02;4.97;;;;;;;18.88;53.12;101251.28;5031638;28;20045;-59
2021/08/04 10:52:10;;;;;;;12.13;5.93;;;;;;;18.92;53.40;101258.63;5032962;28;20056;-59
2021/08/04 10:55:01;;;;;;;11.65;5.90;;;;;;;18.97;54.44;101259.66;5032900;28;20049;-54
2021/08/04 10:57:29;;;;;;;10.70;5.43;;;;;;;19.02;53.91;101246.50;5033079;28;20520;-59
2021/08/04 11:00:20;;;;;;;7.18;4.13;;;;;;;19.10;53.86;101245.78;5034113;28;20064;-58
2021/08/04 11:02:47;;;;;;;12.35;5.70;;;;;;;19.19;54.81;101243.03;5034393;28;20037;-57
2021/08/04 11:05:16;;;;;;;10.57;5.60;;;;;;;19.29;53.92;101244.72;5035039;28;20044;-60
2021/08/04 11:08:16;;;;;;;8.15;3.70;;;;;;;19.36;56.78;101234.03;5033956;28;20071;-60
2021/08/04 11:10:45;;;;;;;12.65;7.00;;;;;;;19.42;53.69;101240.25;5032053;28;20073;-60
2021/08/04 11:13:24;;;;;;;9.18;5.28;;;;;;;19.45;53.96;101239.63;5032205;28;20500;-61
2021/08/04 11:15:53;;;;;;;12.27;5.93;;;;;;;19.50;54.21;101243.03;5031526;28;20051;-60
2021/08/04 11:18:22;;;;;;;8.82;4.57;;;;;;;19.55;54.25;101231.03;5030990;28;20053;-57
2021/08/04 11:21:12;;;;;;;6.53;3.50;;;;;;;19.59;57.16;101227.31;5031990;28;20041;-57
2021/08/04 11:23:45;;;;;;;12.38;6.15;;;;;;;19.68;54.28;101234.88;5032558;28;20041;-58
2021/08/04 11:26:24;;;;;;;9.60;6.55;;;;;;;19.72;52.41;101224.78;5033601;28;20049;-57
2021/08/04 11:28:52;;;;;;;11.82;5.40;;;;;;;19.69;53.29;101225.44;5032966;28;20392;-57
2021/08/04 11:31:24;;;;;;;11.20;5.60;;;;;;;19.66;54.16;101223.28;5038873;28;20053;-55
2021/08/04 11:33:52;;;;;;;19.90;7.90;;;;;;;19.63;52.56;101221.19;5046594;28;20052;-59